Station: Port Augusta  

  Atmospheric Gas Attenuation - ITU Rec 676-11   ----------------- dB/100km -----------------
Date Time Temp RH % AH g/m3 Dew Point Wind Direction Speed kph Gust kph Barometer mB Rainfall Since 9am 24GHz 47GHz 76GHz 122GHz 134GHz 241GHz
08/05 12:00 17.3 59 8.69 9.2 30 37 1031.4 0 19.6 25.7 39.2 102.7 96.7 332.7
08/05 11:50 17.2 58 8.49 8.9 26 30 1031.6 0 19.2 25.4 38.5 100.8 94.3 324.2
08/05 11:40 16.8 58 8.29 8.5 28 33 1031.8 0 18.8 25.2 37.9 99.2 92.2 317.0
08/05 11:30 16.5 58 8.14 8.2 26 35 1031.8 0 18.5 25.1 37.5 98.1 90.6 311.5
08/05 11:20 16.7 58 8.24 8.4 24 28 1031.9 0 18.7 25.2 37.8 98.9 91.7 315.2
08/05 11:10 16.6 57 8.05 8.1 28 32 1031.9 0 18.3 24.9 37.1 97.0 89.4 307.1
08/05 11:00 16.7 58 8.24 8.4 24 32 1032 0 18.7 25.2 37.8 98.9 91.7 315.2
08/05 10:50 16.5 59 8.28 8.5 20 24 1032.1 0 18.8 25.3 38.0 99.5 92.4 317.8
08/05 10:40 16.4 58 8.09 8.1 20 26 1032.1 0 18.4 25.0 37.4 97.7 90.1 309.7
08/05 10:30 16.1 59 8.09 8.1 20 28 1032.1 0 18.4 25.1 37.5 98.1 90.5 310.9
08/05 10:20 15.7 60 8.03 8 22 28 1032.1 0 18.3 25.1 37.5 97.9 90.2 309.8
08/05 10:10 15.7 60 8.03 8 22 28 1032.1 0 18.3 25.1 37.5 97.9 90.2 309.8
08/05 10:00 15.5 61 8.06 8 26 33 1032.1 0 18.3 25.2 37.7 98.5 90.8 311.9
08/05 09:50 15.3 61 7.97 7.8 26 30 1032 0 18.2 25.2 37.4 97.8 89.9 308.6
08/05 09:40 15.3 62 8.1 8.1 17 19 1032.1 0 18.4 25.4 37.9 99.2 91.5 314.5
08/05 09:30 15.1 61 7.87 7.6 20 26 1032.2 0 18.0 25.1 37.1 97.0 88.8 304.9
08/05 09:20 15 60 7.69 7.3 24 28 1032.2 0 17.6 24.8 36.5 95.3 86.6 297.3
08/05 09:10 14.7 61 7.68 7.3 19 20 1032.3 0 17.6 24.9 36.6 95.6 86.9 298.0
08/05 09:00 14.8 60 7.6 7.1 17 24 1032.2 0 17.4 24.7 36.2 94.6 85.7 294.0
08/05 08:50 14.5 61 7.59 7.1 22 26 1032.1 0 17.4 24.8 36.3 94.8 85.9 294.6
08/05 08:40 14.6 61 7.63 7.2 20 24 1032 0 17.5 24.8 36.4 95.1 86.3 296.0
08/05 08:30 14.5 61 7.59 7.1 20 24 1032 0 17.4 24.8 36.3 94.8 85.9 294.6
08/05 08:20 14.3 61 7.49 6.9 19 20 1031.9 0 17.2 24.7 36.0 94.0 84.8 290.8
08/05 08:10 14.2 63 7.69 7.3 17 19 1031.8 0 17.6 25.0 36.8 96.2 87.5 300.2
08/05 08:00 14.1 63 7.65 7.2 19 22 1031.7 0 17.5 25.0 36.7 95.9 87.1 298.7
08/05 07:50 13.9 63 7.55 7 17 19 1031.6 0 17.3 24.9 36.4 95.1 86.0 294.9
08/05 07:40 13.7 64 7.58 7 17 20 1031.5 0 17.4 25.0 36.6 95.6 86.6 297.0
08/05 07:30 13.5 65 7.6 7.1 17 20 1031.4 0 17.5 25.1 36.8 96.1 87.1 298.6
08/05 07:20 13.1 67 7.65 7.1 13 15 1031.4 0 17.6 25.2 37.1 97.1 88.2 302.4
08/05 07:10 12.8 68 7.62 7 15 17 1031.3 0 17.5 25.3 37.2 97.1 88.1 302.2
08/05 07:00 12.5 69 7.59 7 13 15 1031.2 0 17.5 25.3 37.2 97.2 88.1 301.9
08/05 06:50 12.7 68 7.57 7 13 15 1031 0 17.4 25.2 37.0 96.7 87.6 300.2
08/05 06:40 12.9 67 7.55 6.9 15 17 1030.9 0 17.4 25.1 36.8 96.2 87.1 298.5
08/05 06:30 13 65 7.37 6.6 17 22 1031 0 17.0 24.8 36.1 94.2 84.6 290.0
08/05 06:20 13.1 66 7.53 6.9 15 17 1030.8 0 17.3 25.0 36.6 95.8 86.6 296.8
08/05 06:10 13.2 65 7.46 6.8 17 22 1030.9 0 17.2 24.9 36.3 94.9 85.6 293.3
08/05 06:00 13.3 65 7.51 6.9 22 30 1031 0 17.3 25.0 36.5 95.3 86.1 295.2
08/05 05:50 13.1 66 7.53 6.9 26 28 1030.9 0 17.3 25.0 36.6 95.8 86.6 296.8
08/05 05:40 13 66 7.49 6.8 20 24 1030.8 0 17.2 25.0 36.5 95.5 86.2 295.4
08/05 05:30 12.9 67 7.55 6.9 20 26 1030.9 0 17.4 25.1 36.8 96.2 87.1 298.5
08/05 05:20 12.7 66 7.35 6.5 20 24 1030.8 0 17.0 24.9 36.1 94.3 84.7 290.1
08/05 05:10 12.7 65 7.24 6.3 22 24 1030.8 0 16.7 24.7 35.7 93.2 83.3 285.1
08/05 05:00 12.7 64 7.13 6.1 20 28 1030.9 0 16.5 24.5 35.3 92.1 81.9 280.2
08/05 04:50 12.5 66 7.26 6.3 19 20 1030.8 0 16.8 24.8 35.9 93.6 83.7 286.8
08/05 04:40 12.3 66 7.17 6.1 17 20 1030.8 0 16.6 24.7 35.6 92.9 82.8 283.4
08/05 04:30 12.3 66 7.17 6.1 17 26 1030.9 0 16.6 24.7 35.6 92.9 82.8 283.4
08/05 04:20 12.5 67 7.37 6.5 19 22 1030.8 0 17.0 24.9 36.3 94.8 85.2 291.8
08/05 04:10 12.5 68 7.48 6.8 17 19 1030.9 0 17.2 25.1 36.7 96.0 86.6 296.8
08/05 04:00 12.2 69 7.45 6.7 17 20 1030.9 0 17.2 25.2 36.7 96.0 86.5 296.5
08/05 03:50 12.3 69 7.49 6.8 17 19 1030.8 0 17.3 25.2 36.9 96.3 87.0 298.0
08/05 03:40 12.3 68 7.38 6.6 17 19 1030.8 0 17.0 25.0 36.4 95.1 85.5 292.9
08/05 03:30 12.2 69 7.45 6.7 17 20 1030.9 0 17.2 25.2 36.7 96.0 86.5 296.5
08/05 03:20 12.1 70 7.51 6.8 17 19 1030.8 0 17.3 25.3 37.0 96.8 87.4 299.7
08/05 03:10 11.6 72 7.48 6.7 15 17 1030.7 0 17.3 25.4 37.1 97.0 87.6 300.1
08/05 03:00 11.4 71 7.29 6.3 13 15 1030.8 0 16.9 25.1 36.5 95.3 85.3 292.1
08/05 02:50 11.4 70 7.19 6.1 15 17 1030.7 0 16.7 25.0 36.1 94.2 84.0 287.5
08/05 02:40 11.5 70 7.23 6.2 15 15 1030.7 0 16.8 25.0 36.2 94.5 84.4 289.0
08/05 02:30 11.2 71 7.2 6.1 13 15 1030.7 0 16.7 25.0 36.2 94.5 84.3 288.7
08/05 02:20 11.3 70 7.14 6 13 15 1030.6 0 16.6 24.9 35.9 93.8 83.4 285.6
08/05 02:10 11.7 69 7.22 6.2 15 17 1030.6 0 16.7 24.9 36.0 94.1 84.1 287.8
08/05 02:00 11.7 68 7.11 6 15 17 1030.8 0 16.5 24.8 35.6 93.0 82.6 282.8
08/05 01:50 11.9 67 7.1 6 13 15 1030.7 0 16.5 24.7 35.5 92.7 82.3 281.6
08/05 01:40 12.4 65 7.1 6 17 19 1030.8 0 16.4 24.5 35.3 92.1 81.8 279.9
08/05 01:30 12 65 6.93 5.6 17 22 1031 0 16.1 24.4 34.8 90.8 80.0 273.6
08/05 01:20 13.1 61 6.96 5.8 17 20 1030.8 0 16.1 24.1 34.4 89.8 79.3 271.2
08/05 01:10 13.2 61 7 5.9 17 20 1030.9 0 16.2 24.2 34.5 90.1 79.7 272.6
08/05 01:00 13.4 61 7.09 6 17 24 1031 0 16.4 24.3 34.8 90.9 80.6 276.0
08/05 00:50 13.6 60 7.06 6 17 19 1030.9 0 16.3 24.2 34.6 90.3 80.0 273.9
08/05 00:40 13.9 59 7.07 6 20 24 1031 0 16.3 24.1 34.5 90.1 79.9 273.4
08/05 00:30 14.2 58 7.08 6.1 20 26 1031 0 16.3 24.0 34.4 89.8 79.7 272.8
08/05 00:20 14.3 59 7.25 6.4 20 24 1031 0 16.7 24.3 35.0 91.5 81.7 280.0
08/05 00:10 14.5 57 7.09 6.1 24 26 1031 0 16.3 24.0 34.3 89.6 79.5 272.2
08/05 00:00 14.4 58 7.17 6.3 17 26 1031.2 0 16.5 24.1 34.7 90.6 80.6 276.1
07/05 23:50 14.2 57 6.96 5.8 15 17 1031.1 0 16.1 23.9 34.0 88.6 78.2 267.5
07/05 23:40 14 57 6.88 5.6 13 13 1031.3 0 15.9 23.8 33.8 88.1 77.4 264.7
07/05 23:30 13.9 57 6.83 5.5 7 11 1031.3 0 15.8 23.7 33.6 87.7 76.9 262.9
07/05 23:20 13.7 58 6.87 5.6 7 9 1031.4 0 15.9 23.9 33.9 88.3 77.6 265.3
07/05 23:10 13.6 57 6.71 5.3 7 9 1031.3 0 15.6 23.6 33.3 86.8 75.7 258.6
07/05 23:00 13.7 55 6.51 4.8 11 15 1031.4 0 15.1 23.3 32.5 84.7 73.1 249.6
07/05 22:50 13.9 53 6.35 4.5 11 13 1031.4 0 14.8 23.0 31.8 82.9 70.9 242.0
07/05 22:40 14 51 6.15 4 13 17 1031.4 0 14.4 22.7 31.0 80.8 68.4 233.2
07/05 22:30 14.3 50 6.14 4 17 20 1031.5 0 14.3 22.6 30.9 80.4 68.0 231.9
07/05 22:20 14.3 51 6.27 4.3 17 19 1031.5 0 14.6 22.8 31.4 81.7 69.6 237.4
07/05 22:10 14.1 54 6.55 4.9 13 13 1031.5 0 15.2 23.3 32.5 84.7 73.2 250.1
07/05 22:00 14.2 53 6.47 4.8 15 20 1031.5 0 15.0 23.1 32.2 83.8 72.2 246.3
07/05 21:50 14.2 53 6.47 4.8 15 17 1031.4 0 15.0 23.1 32.1 83.7 72.1 246.3
07/05 21:40 14.2 53 6.47 4.8 17 20 1031.4 0 15.0 23.1 32.1 83.7 72.1 246.3
07/05 21:30 14.1 53 6.43 4.7 19 24 1031.3 0 15.0 23.1 32.0 83.4 71.7 244.9
07/05 21:20 14.3 53 6.51 4.9 17 19 1031.1 0 15.1 23.1 32.2 84.0 72.5 247.7
07/05 21:10 14.1 55 6.68 5.2 15 17 1031.1 0 15.5 23.5 33.0 85.9 74.8 255.6
07/05 21:00 14 57 6.88 5.6 13 19 1031.2 0 15.9 23.8 33.8 88.1 77.4 264.7
07/05 20:50 13.9 57 6.83 5.5 13 17 1031.1 0 15.8 23.7 33.6 87.6 76.9 262.8
07/05 20:40 14.1 56 6.8 5.5 15 17 1031.1 0 15.7 23.6 33.4 87.1 76.3 260.9
07/05 20:30 14.1 56 6.8 5.5 20 28 1031.2 0 15.7 23.6 33.4 87.1 76.3 260.9
07/05 20:20 14.1 56 6.8 5.5 19 22 1031.1 0 15.7 23.6 33.4 87.1 76.3 260.9
07/05 20:10 13.8 57 6.79 5.4 19 20 1031 0 15.7 23.7 33.5 87.3 76.5 261.4
07/05 20:00 12.9 61 6.88 5.6 19 24 1031 0 16.0 24.1 34.2 89.3 78.5 268.3
07/05 19:50 13 60 6.8 5.4 20 24 1030.8 0 15.8 23.9 33.9 88.3 77.3 264.4
07/05 19:40 13 60 6.8 5.4 19 20 1030.8 0 15.8 23.9 33.9 88.3 77.3 264.4
07/05 19:30 13.3 59 6.82 5.5 20 26 1030.9 0 15.8 23.9 33.8 88.2 77.3 264.3

Last Refresh: 08-May-2026 12:08:28

Bureau of Meteorology